sensor_id;sensor_type;location;lat;lon;timestamp;temperature;humidity
59067;DHT22;44854;50.838;4.438;2022-09-27T05:02:15;10.90;99.90
59067;DHT22;44854;50.838;4.438;2022-09-27T05:04:41;11.00;99.90
59067;DHT22;44854;50.838;4.438;2022-09-27T05:07:07;10.90;99.90
59067;DHT22;44854;50.838;4.438;2022-09-27T05:09:33;10.80;99.90
59067;DHT22;44854;50.838;4.438;2022-09-27T05:11:58;10.80;99.90
59067;DHT22;44854;50.838;4.438;2022-09-27T05:14:24;10.80;99.90
59067;DHT22;44854;50.838;4.438;2022-09-27T05:16:51;10.80;99.90
59067;DHT22;44854;50.838;4.438;2022-09-27T05:19:17;11.00;99.90
59067;DHT22;44854;50.838;4.438;2022-09-27T05:21:42;10.70;99.90
59067;DHT22;44854;50.838;4.438;2022-09-27T05:24:08;10.70;99.90
59067;DHT22;44854;50.838;4.438;2022-09-27T05:26:34;10.70;99.90
59067;DHT22;44854;50.838;4.438;2022-09-27T05:28:59;10.70;99.90
59067;DHT22;44854;50.838;4.438;2022-09-27T05:31:25;10.70;99.90
59067;DHT22;44854;50.838;4.438;2022-09-27T05:33:53;10.70;99.90
59067;DHT22;44854;50.838;4.438;2022-09-27T05:36:19;10.70;99.90
59067;DHT22;44854;50.838;4.438;2022-09-27T05:38:45;10.70;99.90
59067;DHT22;44854;50.838;4.438;2022-09-27T05:41:11;10.70;99.90
59067;DHT22;44854;50.838;4.438;2022-09-27T05:43:36;10.70;99.90
59067;DHT22;44854;50.838;4.438;2022-09-27T05:46:02;10.70;99.90
59067;DHT22;44854;50.838;4.438;2022-09-27T05:48:30;10.70;99.90
59067;DHT22;44854;50.838;4.438;2022-09-27T05:50:55;10.80;99.90
59067;DHT22;44854;50.838;4.438;2022-09-27T05:53:21;10.70;99.90
59067;DHT22;44854;50.838;4.438;2022-09-27T05:55:47;10.80;99.90
59067;DHT22;44854;50.838;4.438;2022-09-27T05:58:13;10.70;99.90
59067;DHT22;44854;50.838;4.438;2022-09-27T06:00:41;10.80;99.90
59067;DHT22;44854;50.838;4.438;2022-09-27T06:03:08;10.80;99.90
59067;DHT22;44854;50.838;4.438;2022-09-27T06:05:36;10.90;99.90
59067;DHT22;44854;50.838;4.438;2022-09-27T06:08:03;10.90;99.90
59067;DHT22;44854;50.838;4.438;2022-09-27T06:10:29;11.00;99.90
59067;DHT22;44854;50.838;4.438;2022-09-27T06:13:09;11.10;99.90
59067;DHT22;44854;50.838;4.438;2022-09-27T06:15:36;10.90;99.90
59067;DHT22;44854;50.838;4.438;2022-09-27T06:18:02;10.90;99.90
59067;DHT22;44854;50.838;4.438;2022-09-27T06:20:29;11.00;99.90
59067;DHT22;44854;50.838;4.438;2022-09-27T06:23:02;11.10;99.90
59067;DHT22;44854;50.838;4.438;2022-09-27T06:25:27;11.00;99.90
59067;DHT22;44854;50.838;4.438;2022-09-27T06:27:53;11.00;99.90
59067;DHT22;44854;50.838;4.438;2022-09-27T06:30:18;10.90;99.90
59067;DHT22;44854;50.838;4.438;2022-09-27T06:32:44;10.90;99.90
59067;DHT22;44854;50.838;4.438;2022-09-27T06:35:10;10.90;99.90
59067;DHT22;44854;50.838;4.438;2022-09-27T06:37:35;10.80;99.90
59067;DHT22;44854;50.838;4.438;2022-09-27T06:40:01;10.90;99.90
59067;DHT22;44854;50.838;4.438;2022-09-27T06:42:27;10.90;99.90
59067;DHT22;44854;50.838;4.438;2022-09-27T06:44:54;10.80;99.90
59067;DHT22;44854;50.838;4.438;2022-09-27T06:47:21;10.70;99.90
59067;DHT22;44854;50.838;4.438;2022-09-27T06:49:48;10.70;99.90
59067;DHT22;44854;50.838;4.438;2022-09-27T06:52:13;10.70;99.90
59067;DHT22;44854;50.838;4.438;2022-09-27T06:54:39;10.60;99.90
59067;DHT22;44854;50.838;4.438;2022-09-27T06:57:04;10.70;99.90
59067;DHT22;44854;50.838;4.438;2022-09-27T06:59:30;10.80;99.90
59067;DHT22;44854;50.838;4.438;2022-09-27T07:02:14;10.90;99.90
59067;DHT22;44854;50.838;4.438;2022-09-27T07:04:40;10.90;99.90
59067;DHT22;44854;50.838;4.438;2022-09-27T07:07:05;11.30;99.90
59067;DHT22;44854;50.838;4.438;2022-09-27T07:09:31;11.30;99.90
59067;DHT22;44854;50.838;4.438;2022-09-27T07:11:56;11.20;99.90
59067;DHT22;44854;50.838;4.438;2022-09-27T07:14:22;11.30;99.90
59067;DHT22;44854;50.838;4.438;2022-09-27T07:16:50;11.30;99.90
59067;DHT22;44854;50.838;4.438;2022-09-27T07:19:16;11.10;99.90
59067;DHT22;44854;50.838;4.438;2022-09-27T07:21:42;11.00;99.90
59067;DHT22;44854;50.838;4.438;2022-09-27T07:24:08;11.10;99.90
59067;DHT22;44854;50.838;4.438;2022-09-27T07:26:33;10.90;99.90
59067;DHT22;44854;50.838;4.438;2022-09-27T07:28:59;10.90;99.90
59067;DHT22;44854;50.838;4.438;2022-09-27T07:31:25;11.20;99.90
59067;DHT22;44854;50.838;4.438;2022-09-27T07:33:51;11.10;99.90
59067;DHT22;44854;50.838;4.438;2022-09-27T07:36:17;11.20;99.90
59067;DHT22;44854;50.838;4.438;2022-09-27T07:38:43;11.20;99.90
59067;DHT22;44854;50.838;4.438;2022-09-27T07:41:09;11.20;99.90
59067;DHT22;44854;50.838;4.438;2022-09-27T07:43:38;11.30;99.90
59067;DHT22;44854;50.838;4.438;2022-09-27T07:46:04;11.30;99.90
59067;DHT22;44854;50.838;4.438;2022-09-27T07:48:29;11.20;99.90
59067;DHT22;44854;50.838;4.438;2022-09-27T07:50:55;11.30;99.90
59067;DHT22;44854;50.838;4.438;2022-09-27T07:53:21;11.20;99.90
59067;DHT22;44854;50.838;4.438;2022-09-27T07:55:48;11.50;99.90
59067;DHT22;44854;50.838;4.438;2022-09-27T07:58:14;11.40;99.90
59067;DHT22;44854;50.838;4.438;2022-09-27T08:00:40;11.30;99.90
59067;DHT22;44854;50.838;4.438;2022-09-27T08:03:07;11.10;99.90
59067;DHT22;44854;50.838;4.438;2022-09-27T08:05:34;11.10;99.90
59067;DHT22;44854;50.838;4.438;2022-09-27T08:08:00;11.00;99.90
59067;DHT22;44854;50.838;4.438;2022-09-27T08:10:27;11.00;99.90
59067;DHT22;44854;50.838;4.438;2022-09-27T08:12:54;11.00;99.90
59067;DHT22;44854;50.838;4.438;2022-09-27T08:15:20;11.20;99.90
59067;DHT22;44854;50.838;4.438;2022-09-27T08:17:46;11.20;99.90
59067;DHT22;44854;50.838;4.438;2022-09-27T08:20:11;11.10;99.90
59067;DHT22;44854;50.838;4.438;2022-09-27T08:22:41;11.20;99.90
59067;DHT22;44854;50.838;4.438;2022-09-27T08:25:07;11.40;99.90
59067;DHT22;44854;50.838;4.438;2022-09-27T08:27:33;11.30;99.90
59067;DHT22;44854;50.838;4.438;2022-09-27T08:29:59;11.20;99.90
59067;DHT22;44854;50.838;4.438;2022-09-27T08:32:24;11.20;99.90
59067;DHT22;44854;50.838;4.438;2022-09-27T08:34:50;11.30;99.90
59067;DHT22;44854;50.838;4.438;2022-09-27T08:37:15;11.50;99.90
59067;DHT22;44854;50.838;4.438;2022-09-27T08:39:41;11.40;99.90
59067;DHT22;44854;50.838;4.438;2022-09-27T08:49:51;11.50;99.90
59067;DHT22;44854;50.838;4.438;2022-09-27T08:52:31;11.60;99.90
59067;DHT22;44854;50.838;4.438;2022-09-27T08:54:57;11.60;99.90
59067;DHT22;44854;50.838;4.438;2022-09-27T08:57:25;11.50;99.90
59067;DHT22;44854;50.838;4.438;2022-09-27T08:59:56;11.60;99.90
59067;DHT22;44854;50.838;4.438;2022-09-27T09:02:25;11.60;99.90
59067;DHT22;44854;50.838;4.438;2022-09-27T09:04:53;11.60;99.90
59067;DHT22;44854;50.838;4.438;2022-09-27T09:09:54;11.80;99.90
59067;DHT22;44854;50.838;4.438;2022-09-27T09:12:39;11.80;99.90
59067;DHT22;44854;50.838;4.438;2022-09-27T09:17:49;11.50;99.90
59067;DHT22;44854;50.838;4.438;2022-09-27T09:20:32;11.30;99.90
59067;DHT22;44854;50.838;4.438;2022-09-27T09:33:43;11.20;99.90
59067;DHT22;44854;50.838;4.438;2022-09-27T09:36:30;11.30;99.90
59067;DHT22;44854;50.838;4.438;2022-09-27T09:39:02;11.50;99.90
59067;DHT22;44854;50.838;4.438;2022-09-27T09:41:36;11.70;99.90
59067;DHT22;44854;50.838;4.438;2022-09-27T09:46:47;11.90;99.90
59067;DHT22;44854;50.838;4.438;2022-09-27T09:49:16;12.20;99.90
59067;DHT22;44854;50.838;4.438;2022-09-27T09:51:43;12.10;99.90
59067;DHT22;44854;50.838;4.438;2022-09-27T09:56:44;12.10;99.90
59067;DHT22;44854;50.838;4.438;2022-09-27T09:59:16;12.20;99.90
59067;DHT22;44854;50.838;4.438;2022-09-27T10:01:44;12.30;99.90
59067;DHT22;44854;50.838;4.438;2022-09-27T10:04:14;12.30;99.90
59067;DHT22;44854;50.838;4.438;2022-09-27T10:06:42;12.30;99.90
59067;DHT22;44854;50.838;4.438;2022-09-27T10:09:08;12.00;99.90
59067;DHT22;44854;50.838;4.438;2022-09-27T10:11:37;12.20;99.90
59067;DHT22;44854;50.838;4.438;2022-09-27T10:14:04;12.30;99.90
59067;DHT22;44854;50.838;4.438;2022-09-27T10:16:34;12.40;99.90
59067;DHT22;44854;50.838;4.438;2022-09-27T10:19:00;12.70;99.90
59067;DHT22;44854;50.838;4.438;2022-09-27T10:21:27;12.80;99.90
59067;DHT22;44854;50.838;4.438;2022-09-27T10:26:31;13.00;99.90
59067;DHT22;44854;50.838;4.438;2022-09-27T10:28:57;13.00;99.90
59067;DHT22;44854;50.838;4.438;2022-09-27T10:31:38;13.20;99.90
59067;DHT22;44854;50.838;4.438;2022-09-27T10:34:15;13.20;99.90
59067;DHT22;44854;50.838;4.438;2022-09-27T10:36:41;13.10;99.90
59067;DHT22;44854;50.838;4.438;2022-09-27T10:39:09;13.10;99.90
59067;DHT22;44854;50.838;4.438;2022-09-27T10:41:45;13.00;99.90
59067;DHT22;44854;50.838;4.438;2022-09-27T10:46:46;12.90;99.90
59067;DHT22;44854;50.838;4.438;2022-09-27T10:49:20;12.80;99.90
59067;DHT22;44854;50.838;4.438;2022-09-27T10:51:48;13.00;99.90
59067;DHT22;44854;50.838;4.438;2022-09-27T10:54:22;13.10;99.90
59067;DHT22;44854;50.838;4.438;2022-09-27T10:56:55;13.20;99.90
59067;DHT22;44854;50.838;4.438;2022-09-27T10:59:22;13.40;99.90
59067;DHT22;44854;50.838;4.438;2022-09-27T11:01:48;13.30;99.90
59067;DHT22;44854;50.838;4.438;2022-09-27T11:07:06;13.10;99.90
59067;DHT22;44854;50.838;4.438;2022-09-27T11:09:31;13.20;99.90
59067;DHT22;44854;50.838;4.438;2022-09-27T11:12:09;13.40;99.90
59067;DHT22;44854;50.838;4.438;2022-09-27T11:14:35;13.60;99.90
59067;DHT22;44854;50.838;4.438;2022-09-27T11:25:14;13.70;99.90
59067;DHT22;44854;50.838;4.438;2022-09-27T11:30:29;13.20;99.90
59067;DHT22;44854;50.838;4.438;2022-09-27T11:36:30;12.80;99.90
59067;DHT22;44854;50.838;4.438;2022-09-27T11:39:21;12.80;99.90
59067;DHT22;44854;50.838;4.438;2022-09-27T11:46:54;13.40;99.90
59067;DHT22;44854;50.838;4.438;2022-09-27T11:49:27;13.20;99.90
59067;DHT22;44854;50.838;4.438;2022-09-27T12:05:05;13.20;99.90
59067;DHT22;44854;50.838;4.438;2022-09-27T12:07:43;13.20;99.90
59067;DHT22;44854;50.838;4.438;2022-09-27T12:10:13;13.00;99.90
59067;DHT22;44854;50.838;4.438;2022-09-27T12:12:41;13.20;99.90
59067;DHT22;44854;50.838;4.438;2022-09-27T12:15:16;13.40;99.90
59067;DHT22;44854;50.838;4.438;2022-09-27T12:17:44;13.60;99.90
59067;DHT22;44854;50.838;4.438;2022-09-27T12:20:26;13.50;99.90
59067;DHT22;44854;50.838;4.438;2022-09-27T12:25:18;13.60;99.90
59067;DHT22;44854;50.838;4.438;2022-09-27T12:27:55;13.60;99.90
59067;DHT22;44854;50.838;4.438;2022-09-27T12:30:23;13.90;99.90
59067;DHT22;44854;50.838;4.438;2022-09-27T12:37:47;14.10;99.90
59067;DHT22;44854;50.838;4.438;2022-09-27T12:45:50;14.20;99.90
59067;DHT22;44854;50.838;4.438;2022-09-27T12:50:49;14.40;99.90
59067;DHT22;44854;50.838;4.438;2022-09-27T12:53:16;14.40;99.90
59067;DHT22;44854;50.838;4.438;2022-09-27T13:01:00;14.30;99.90
59067;DHT22;44854;50.838;4.438;2022-09-27T13:13:41;13.60;99.90
59067;DHT22;44854;50.838;4.438;2022-09-27T13:16:07;13.60;99.90
59067;DHT22;44854;50.838;4.438;2022-09-27T13:21:03;14.00;99.90
59067;DHT22;44854;50.838;4.438;2022-09-27T13:30:54;14.20;99.90
59067;DHT22;44854;50.838;4.438;2022-09-27T13:33:31;14.60;99.90
59067;DHT22;44854;50.838;4.438;2022-09-27T13:41:27;15.10;99.90
59067;DHT22;44854;50.838;4.438;2022-09-27T13:46:43;14.60;99.90
59067;DHT22;44854;50.838;4.438;2022-09-27T13:51:52;14.40;99.90
59067;DHT22;44854;50.838;4.438;2022-09-27T13:56:57;14.40;99.90
59067;DHT22;44854;50.838;4.438;2022-09-27T13:59:40;14.70;99.90
59067;DHT22;44854;50.838;4.438;2022-09-27T14:02:12;14.80;99.90
59067;DHT22;44854;50.838;4.438;2022-09-27T14:04:43;15.10;99.90
59067;DHT22;44854;50.838;4.438;2022-09-27T14:07:11;15.00;99.90
59067;DHT22;44854;50.838;4.438;2022-09-27T14:09:39;15.30;99.90
59067;DHT22;44854;50.838;4.438;2022-09-27T14:12:10;15.40;99.90
59067;DHT22;44854;50.838;4.438;2022-09-27T14:14:36;15.50;99.90
59067;DHT22;44854;50.838;4.438;2022-09-27T14:17:05;15.40;99.90
59067;DHT22;44854;50.838;4.438;2022-09-27T14:19:31;15.40;99.90
59067;DHT22;44854;50.838;4.438;2022-09-27T14:21:58;15.30;99.90
59067;DHT22;44854;50.838;4.438;2022-09-27T14:29:41;15.10;99.90
59067;DHT22;44854;50.838;4.438;2022-09-27T14:32:11;15.00;99.90
59067;DHT22;44854;50.838;4.438;2022-09-27T14:34:37;15.00;99.90
59067;DHT22;44854;50.838;4.438;2022-09-27T14:37:04;15.20;99.90
59067;DHT22;44854;50.838;4.438;2022-09-27T14:40:21;15.30;99.90
59067;DHT22;44854;50.838;4.438;2022-09-27T14:42:39;15.20;99.90
59067;DHT22;44854;50.838;4.438;2022-09-27T14:45:13;15.30;99.90
59067;DHT22;44854;50.838;4.438;2022-09-27T14:47:46;15.00;99.90
59067;DHT22;44854;50.838;4.438;2022-09-27T14:50:33;15.10;99.90
59067;DHT22;44854;50.838;4.438;2022-09-27T14:53:00;15.00;99.90
59067;DHT22;44854;50.838;4.438;2022-09-27T14:55:29;15.00;99.90
59067;DHT22;44854;50.838;4.438;2022-09-27T14:57:56;14.90;99.90
59067;DHT22;44854;50.838;4.438;2022-09-27T15:00:26;14.60;99.90
59067;DHT22;44854;50.838;4.438;2022-09-27T15:02:57;14.30;99.90
59067;DHT22;44854;50.838;4.438;2022-09-27T15:05:25;14.00;99.90
59067;DHT22;44854;50.838;4.438;2022-09-27T15:07:51;13.80;99.90
59067;DHT22;44854;50.838;4.438;2022-09-27T15:10:18;13.70;99.90
59067;DHT22;44854;50.838;4.438;2022-09-27T15:12:44;13.70;99.90
59067;DHT22;44854;50.838;4.438;2022-09-27T15:15:17;13.70;99.90
59067;DHT22;44854;50.838;4.438;2022-09-27T15:17:44;13.80;99.90
59067;DHT22;44854;50.838;4.438;2022-09-27T15:20:20;13.90;99.90
59067;DHT22;44854;50.838;4.438;2022-09-27T15:22:46;13.90;99.90
59067;DHT22;44854;50.838;4.438;2022-09-27T15:25:17;13.90;99.90
59067;DHT22;44854;50.838;4.438;2022-09-27T15:27:46;13.80;99.90
59067;DHT22;44854;50.838;4.438;2022-09-27T15:30:17;13.80;99.90
59067;DHT22;44854;50.838;4.438;2022-09-27T15:32:46;13.80;99.90
59067;DHT22;44854;50.838;4.438;2022-09-27T15:35:14;13.80;99.90
59067;DHT22;44854;50.838;4.438;2022-09-27T15:37:42;14.00;99.90
59067;DHT22;44854;50.838;4.438;2022-09-27T15:42:58;14.20;99.90
59067;DHT22;44854;50.838;4.438;2022-09-27T15:45:32;14.10;99.90
59067;DHT22;44854;50.838;4.438;2022-09-27T15:50:56;14.00;99.90
59067;DHT22;44854;50.838;4.438;2022-09-27T15:56:02;14.20;99.90
59067;DHT22;44854;50.838;4.438;2022-09-27T15:58:28;14.30;99.90
59067;DHT22;44854;50.838;4.438;2022-09-27T16:03:20;14.30;99.90
59067;DHT22;44854;50.838;4.438;2022-09-27T16:05:46;14.20;99.90
59067;DHT22;44854;50.838;4.438;2022-09-27T16:08:11;14.30;99.90
59067;DHT22;44854;50.838;4.438;2022-09-27T16:10:41;14.40;99.90
59067;DHT22;44854;50.838;4.438;2022-09-27T16:13:07;14.40;99.90
59067;DHT22;44854;50.838;4.438;2022-09-27T16:15:33;14.30;99.90
59067;DHT22;44854;50.838;4.438;2022-09-27T16:17:58;14.30;99.90
59067;DHT22;44854;50.838;4.438;2022-09-27T16:20:25;14.40;99.90
59067;DHT22;44854;50.838;4.438;2022-09-27T16:22:52;14.40;99.90
59067;DHT22;44854;50.838;4.438;2022-09-27T16:25:18;14.30;99.90
59067;DHT22;44854;50.838;4.438;2022-09-27T16:27:44;14.30;99.90
59067;DHT22;44854;50.838;4.438;2022-09-27T16:30:09;14.40;99.90
59067;DHT22;44854;50.838;4.438;2022-09-27T16:32:41;14.40;99.90
59067;DHT22;44854;50.838;4.438;2022-09-27T16:35:08;14.40;99.90
59067;DHT22;44854;50.838;4.438;2022-09-27T16:37:34;14.40;99.90
59067;DHT22;44854;50.838;4.438;2022-09-27T16:39:59;14.50;99.90
59067;DHT22;44854;50.838;4.438;2022-09-27T16:42:25;14.20;99.90
59067;DHT22;44854;50.838;4.438;2022-09-27T16:44:54;14.10;99.90
59067;DHT22;44854;50.838;4.438;2022-09-27T16:47:20;14.00;99.90
59067;DHT22;44854;50.838;4.438;2022-09-27T16:49:45;14.00;99.90
59067;DHT22;44854;50.838;4.438;2022-09-27T16:52:29;14.00;99.90
59067;DHT22;44854;50.838;4.438;2022-09-27T16:54:59;13.90;99.90
59067;DHT22;44854;50.838;4.438;2022-09-27T16:57:24;13.90;99.90
59067;DHT22;44854;50.838;4.438;2022-09-27T16:59:52;13.90;99.90
59067;DHT22;44854;50.838;4.438;2022-09-27T17:02:20;13.80;99.90
59067;DHT22;44854;50.838;4.438;2022-09-27T17:04:46;13.80;99.90
59067;DHT22;44854;50.838;4.438;2022-09-27T17:07:12;13.80;99.90
59067;DHT22;44854;50.838;4.438;2022-09-27T17:09:37;13.90;99.90
59067;DHT22;44854;50.838;4.438;2022-09-27T17:12:04;13.80;99.90
59067;DHT22;44854;50.838;4.438;2022-09-27T17:14:30;13.80;99.90
59067;DHT22;44854;50.838;4.438;2022-09-27T17:16:56;13.90;99.90
59067;DHT22;44854;50.838;4.438;2022-09-27T17:19:22;13.70;99.90
59067;DHT22;44854;50.838;4.438;2022-09-27T17:21:48;13.70;99.90
59067;DHT22;44854;50.838;4.438;2022-09-27T17:24:15;13.70;99.90
59067;DHT22;44854;50.838;4.438;2022-09-27T17:26:40;13.70;99.90
59067;DHT22;44854;50.838;4.438;2022-09-27T17:29:06;13.50;99.90
59067;DHT22;44854;50.838;4.438;2022-09-27T17:31:32;13.50;99.90
59067;DHT22;44854;50.838;4.438;2022-09-27T17:34:01;13.40;99.90
59067;DHT22;44854;50.838;4.438;2022-09-27T17:36:28;13.40;99.90
59067;DHT22;44854;50.838;4.438;2022-09-27T17:38:54;13.40;99.90
59067;DHT22;44854;50.838;4.438;2022-09-27T17:41:21;13.50;99.90
59067;DHT22;44854;50.838;4.438;2022-09-27T17:43:51;13.50;99.90
59067;DHT22;44854;50.838;4.438;2022-09-27T17:46:18;13.50;99.90
59067;DHT22;44854;50.838;4.438;2022-09-27T17:48:44;13.40;99.90
59067;DHT22;44854;50.838;4.438;2022-09-27T17:51:30;13.40;99.90
59067;DHT22;44854;50.838;4.438;2022-09-27T17:53:56;13.40;99.90
59067;DHT22;44854;50.838;4.438;2022-09-27T17:56:22;13.40;99.90
59067;DHT22;44854;50.838;4.438;2022-09-27T17:58:53;13.30;99.90
59067;DHT22;44854;50.838;4.438;2022-09-27T18:01:20;13.20;99.90
59067;DHT22;44854;50.838;4.438;2022-09-27T18:03:46;13.10;99.90
59067;DHT22;44854;50.838;4.438;2022-09-27T18:06:12;13.10;99.90
59067;DHT22;44854;50.838;4.438;2022-09-27T18:08:38;13.10;99.90
59067;DHT22;44854;50.838;4.438;2022-09-27T18:11:11;13.00;99.90
59067;DHT22;44854;50.838;4.438;2022-09-27T18:13:37;12.90;99.90
59067;DHT22;44854;50.838;4.438;2022-09-27T18:16:06;12.80;99.90
59067;DHT22;44854;50.838;4.438;2022-09-27T18:18:33;12.70;99.90
59067;DHT22;44854;50.838;4.438;2022-09-27T18:21:01;12.60;99.90
59067;DHT22;44854;50.838;4.438;2022-09-27T18:23:28;12.40;99.90
59067;DHT22;44854;50.838;4.438;2022-09-27T18:25:54;12.20;99.90
59067;DHT22;44854;50.838;4.438;2022-09-27T18:28:23;11.80;99.90
59067;DHT22;44854;50.838;4.438;2022-09-27T18:30:49;11.60;99.90
59067;DHT22;44854;50.838;4.438;2022-09-27T18:33:15;11.50;99.90
59067;DHT22;44854;50.838;4.438;2022-09-27T18:35:40;11.60;99.90
59067;DHT22;44854;50.838;4.438;2022-09-27T18:38:06;11.80;99.90
59067;DHT22;44854;50.838;4.438;2022-09-27T18:40:31;11.80;99.90
59067;DHT22;44854;50.838;4.438;2022-09-27T18:42:58;11.80;99.90
59067;DHT22;44854;50.838;4.438;2022-09-27T18:45:24;11.90;99.90
59067;DHT22;44854;50.838;4.438;2022-09-27T18:47:49;11.90;99.90
59067;DHT22;44854;50.838;4.438;2022-09-27T18:50:15;11.90;99.90
59067;DHT22;44854;50.838;4.438;2022-09-27T18:52:40;11.90;99.90
59067;DHT22;44854;50.838;4.438;2022-09-27T18:55:06;11.90;99.90
59067;DHT22;44854;50.838;4.438;2022-09-27T18:57:32;11.90;99.90
59067;DHT22;44854;50.838;4.438;2022-09-27T18:59:58;11.80;99.90
59067;DHT22;44854;50.838;4.438;2022-09-27T19:02:28;11.90;99.90
59067;DHT22;44854;50.838;4.438;2022-09-27T19:04:53;11.90;99.90
59067;DHT22;44854;50.838;4.438;2022-09-27T19:07:19;11.80;99.90
59067;DHT22;44854;50.838;4.438;2022-09-27T19:09:44;11.80;99.90
59067;DHT22;44854;50.838;4.438;2022-09-27T19:12:10;11.70;99.90
59067;DHT22;44854;50.838;4.438;2022-09-27T19:14:35;11.70;99.90
59067;DHT22;44854;50.838;4.438;2022-09-27T19:17:01;11.60;99.90
59067;DHT22;44854;50.838;4.438;2022-09-27T19:19:26;11.60;99.90
59067;DHT22;44854;50.838;4.438;2022-09-27T19:21:52;11.60;99.90
59067;DHT22;44854;50.838;4.438;2022-09-27T19:24:19;11.50;99.90
59067;DHT22;44854;50.838;4.438;2022-09-27T19:26:44;11.60;99.90
59067;DHT22;44854;50.838;4.438;2022-09-27T19:29:10;11.70;99.90
59067;DHT22;44854;50.838;4.438;2022-09-27T19:31:37;11.70;99.90
59067;DHT22;44854;50.838;4.438;2022-09-27T19:34:02;11.60;99.90
59067;DHT22;44854;50.838;4.438;2022-09-27T19:36:28;11.60;99.90
59067;DHT22;44854;50.838;4.438;2022-09-27T19:38:54;11.60;99.90
59067;DHT22;44854;50.838;4.438;2022-09-27T19:41:22;11.70;99.90
59067;DHT22;44854;50.838;4.438;2022-09-27T19:43:51;11.70;99.90
59067;DHT22;44854;50.838;4.438;2022-09-27T19:46:17;11.70;99.90
59067;DHT22;44854;50.838;4.438;2022-09-27T19:48:44;11.70;99.90
59067;DHT22;44854;50.838;4.438;2022-09-27T19:51:13;11.40;99.90
59067;DHT22;44854;50.838;4.438;2022-09-27T19:53:39;11.30;99.90
59067;DHT22;44854;50.838;4.438;2022-09-27T19:56:06;11.20;99.90
59067;DHT22;44854;50.838;4.438;2022-09-27T19:58:32;11.20;99.90
59067;DHT22;44854;50.838;4.438;2022-09-27T20:00:59;11.20;99.90
59067;DHT22;44854;50.838;4.438;2022-09-27T20:03:26;11.30;99.90
59067;DHT22;44854;50.838;4.438;2022-09-27T20:05:52;11.30;99.90
59067;DHT22;44854;50.838;4.438;2022-09-27T20:08:18;11.20;99.90
59067;DHT22;44854;50.838;4.438;2022-09-27T20:10:50;10.80;99.90
59067;DHT22;44854;50.838;4.438;2022-09-27T20:13:16;10.90;99.90
59067;DHT22;44854;50.838;4.438;2022-09-27T20:15:42;11.00;99.90
59067;DHT22;44854;50.838;4.438;2022-09-27T20:18:07;11.00;99.90
59067;DHT22;44854;50.838;4.438;2022-09-27T20:20:35;11.00;99.90
59067;DHT22;44854;50.838;4.438;2022-09-27T20:23:01;11.10;99.90
59067;DHT22;44854;50.838;4.438;2022-09-27T20:25:26;11.20;99.90
59067;DHT22;44854;50.838;4.438;2022-09-27T20:27:53;11.30;99.90
59067;DHT22;44854;50.838;4.438;2022-09-27T20:30:20;11.30;99.90
59067;DHT22;44854;50.838;4.438;2022-09-27T20:32:46;11.30;99.90
59067;DHT22;44854;50.838;4.438;2022-09-27T20:35:31;11.40;99.90
59067;DHT22;44854;50.838;4.438;2022-09-27T20:37:57;11.40;99.90
59067;DHT22;44854;50.838;4.438;2022-09-27T20:40:23;11.40;99.90
59067;DHT22;44854;50.838;4.438;2022-09-27T20:42:48;11.40;99.90
59067;DHT22;44854;50.838;4.438;2022-09-27T20:45:14;11.40;99.90
59067;DHT22;44854;50.838;4.438;2022-09-27T20:47:39;11.30;99.90
59067;DHT22;44854;50.838;4.438;2022-09-27T20:50:05;11.50;99.90
59067;DHT22;44854;50.838;4.438;2022-09-27T20:52:31;11.40;99.90
59067;DHT22;44854;50.838;4.438;2022-09-27T20:54:56;11.40;99.90
59067;DHT22;44854;50.838;4.438;2022-09-27T20:57:22;11.50;99.90
59067;DHT22;44854;50.838;4.438;2022-09-27T20:59:50;11.60;99.90
59067;DHT22;44854;50.838;4.438;2022-09-27T21:02:15;11.50;99.90
59067;DHT22;44854;50.838;4.438;2022-09-27T21:04:41;11.50;99.90
59067;DHT22;44854;50.838;4.438;2022-09-27T21:07:06;11.40;99.90
59067;DHT22;44854;50.838;4.438;2022-09-27T21:09:32;11.50;99.90
59067;DHT22;44854;50.838;4.438;2022-09-27T21:12:00;11.40;99.90
59067;DHT22;44854;50.838;4.438;2022-09-27T21:14:25;11.50;99.90
59067;DHT22;44854;50.838;4.438;2022-09-27T21:16:51;11.40;99.90
59067;DHT22;44854;50.838;4.438;2022-09-27T21:19:19;11.40;99.90
59067;DHT22;44854;50.838;4.438;2022-09-27T21:21:45;11.50;99.90
59067;DHT22;44854;50.838;4.438;2022-09-27T21:24:11;11.50;99.90
59067;DHT22;44854;50.838;4.438;2022-09-27T21:26:36;11.50;99.90
59067;DHT22;44854;50.838;4.438;2022-09-27T21:29:06;11.60;99.90
59067;DHT22;44854;50.838;4.438;2022-09-27T21:31:33;11.60;99.90
59067;DHT22;44854;50.838;4.438;2022-09-27T21:34:00;11.80;99.90
59067;DHT22;44854;50.838;4.438;2022-09-27T21:36:29;11.70;99.90
59067;DHT22;44854;50.838;4.438;2022-09-27T21:38:55;11.70;99.90
59067;DHT22;44854;50.838;4.438;2022-09-27T21:41:21;11.70;99.90
59067;DHT22;44854;50.838;4.438;2022-09-27T21:43:46;11.70;99.90
59067;DHT22;44854;50.838;4.438;2022-09-27T21:46:13;11.80;99.90
59067;DHT22;44854;50.838;4.438;2022-09-27T21:48:40;11.80;99.90
59067;DHT22;44854;50.838;4.438;2022-09-27T21:53:35;11.90;99.90
59067;DHT22;44854;50.838;4.438;2022-09-27T21:56:01;12.00;99.90
59067;DHT22;44854;50.838;4.438;2022-09-27T21:58:27;12.00;99.90
